createdAt,value
2023-08-07T00:01:46.698Z,14.10
2023-08-07T00:04:13.388Z,13.75
2023-08-07T00:06:39.877Z,13.80
2023-08-07T00:09:06.416Z,14.18
2023-08-07T00:11:32.887Z,14.15
2023-08-07T00:14:00.485Z,13.85
2023-08-07T00:16:27.195Z,15.45
2023-08-07T00:18:57.133Z,13.90
2023-08-07T00:23:51.985Z,16.13
2023-08-07T00:26:19.170Z,13.45
2023-08-07T00:28:45.923Z,12.50
2023-08-07T00:31:13.510Z,13.02
2023-08-07T00:33:40.216Z,12.80
2023-08-07T00:36:06.842Z,13.18
2023-08-07T00:38:33.385Z,12.80
2023-08-07T00:41:01.035Z,12.45
2023-08-07T00:43:27.651Z,13.15
2023-08-07T00:45:54.753Z,13.30
2023-08-07T00:48:21.959Z,12.90
2023-08-07T00:50:50.011Z,13.88
2023-08-07T00:53:16.995Z,13.40
2023-08-07T00:55:43.971Z,13.65
2023-08-07T00:58:11.695Z,12.70
2023-08-07T01:00:38.392Z,14.00
2023-08-07T01:03:07.940Z,13.27
2023-08-07T01:05:35.729Z,13.18
2023-08-07T01:08:04.175Z,13.65
2023-08-07T01:10:56.820Z,13.57
2023-08-07T01:13:50.026Z,13.27
2023-08-07T01:16:38.961Z,14.10
2023-08-07T01:19:12.007Z,13.65
2023-08-07T01:21:38.803Z,12.93
2023-08-07T01:24:05.586Z,13.60
2023-08-07T01:26:33.586Z,14.32
2023-08-07T01:29:13.120Z,13.85
2023-08-07T01:31:41.813Z,13.43
2023-08-07T01:34:09.816Z,13.80
2023-08-07T01:36:38.371Z,13.07
2023-08-07T01:39:08.027Z,13.63
2023-08-07T01:41:37.004Z,13.02
2023-08-07T01:44:04.937Z,14.38
2023-08-07T01:46:31.583Z,13.13
2023-08-07T01:48:58.103Z,15.27
2023-08-07T01:51:24.597Z,13.25
2023-08-07T01:53:51.224Z,13.27
2023-08-07T01:56:17.764Z,12.98
2023-08-07T01:58:44.241Z,14.52
2023-08-07T02:01:10.782Z,14.05
2023-08-07T02:03:37.380Z,16.92
2023-08-07T02:06:04.450Z,12.93
2023-08-07T02:08:30.932Z,13.20
2023-08-07T02:10:57.978Z,13.05
2023-08-07T02:13:24.579Z,12.80
2023-08-07T02:15:51.061Z,13.30
2023-08-07T02:18:17.602Z,13.48
2023-08-07T02:20:44.899Z,14.82
2023-08-07T02:23:11.380Z,14.05
2023-08-07T02:25:37.822Z,13.30
2023-08-07T02:28:04.473Z,12.98
2023-08-07T02:30:32.267Z,12.50
2023-08-07T02:32:58.783Z,12.57
2023-08-07T02:35:25.695Z,13.10
2023-08-07T02:37:52.167Z,12.75
2023-08-07T02:40:20.124Z,13.45
2023-08-07T02:42:46.726Z,12.90
2023-08-07T02:45:22.233Z,12.30
2023-08-07T02:47:48.894Z,13.18
2023-08-07T02:50:15.762Z,12.73
2023-08-07T02:52:44.368Z,12.80
2023-08-07T02:55:12.351Z,12.50
2023-08-07T02:57:38.821Z,12.68
2023-08-07T03:00:06.097Z,12.80
2023-08-07T03:02:32.583Z,12.43
2023-08-07T03:04:59.282Z,14.38
2023-08-07T03:07:26.158Z,12.50
2023-08-07T03:09:52.610Z,13.40
2023-08-07T03:12:19.030Z,12.10
2023-08-07T03:14:45.606Z,19.55
2023-08-07T03:17:12.074Z,12.10
2023-08-07T03:19:38.538Z,12.80
2023-08-07T03:22:05.142Z,12.52
2023-08-07T03:24:31.852Z,14.73
2023-08-07T03:26:58.402Z,17.50
2023-08-07T03:29:24.938Z,12.50
2023-08-07T03:31:51.526Z,13.25
2023-08-07T03:34:18.063Z,12.80
2023-08-07T03:36:46.205Z,11.10
2023-08-07T03:39:13.353Z,14.75
2023-08-07T03:41:39.823Z,10.90
2023-08-07T03:44:06.588Z,15.25
2023-08-07T03:46:33.322Z,12.02
2023-08-07T03:48:59.829Z,11.85
2023-08-07T03:51:26.383Z,10.38
2023-08-07T03:53:52.866Z,12.77
2023-08-07T03:56:19.467Z,11.05
2023-08-07T03:58:45.981Z,13.93
2023-08-07T04:01:12.596Z,10.35
2023-08-07T04:03:39.621Z,13.40
2023-08-07T04:06:06.961Z,14.18
2023-08-07T04:08:33.716Z,16.85
2023-08-07T04:11:01.619Z,13.52
2023-08-07T04:13:29.259Z,12.40
2023-08-07T04:15:56.184Z,14.35
2023-08-07T04:18:23.134Z,13.40
2023-08-07T04:20:53.754Z,14.65
2023-08-07T04:23:20.753Z,14.63
2023-08-07T04:25:51.000Z,12.43
2023-08-07T04:28:17.732Z,16.77
2023-08-07T04:30:45.081Z,17.27
2023-08-07T04:33:11.964Z,15.73
2023-08-07T04:35:38.458Z,17.60
2023-08-07T04:38:05.080Z,23.42
2023-08-07T04:40:31.727Z,16.05
2023-08-07T04:42:58.509Z,17.25
2023-08-07T04:45:25.114Z,13.13
2023-08-07T04:47:51.955Z,15.48
2023-08-07T04:50:19.003Z,15.50
2023-08-07T04:52:45.795Z,16.90
2023-08-07T04:55:12.697Z,16.20
2023-08-07T04:57:39.247Z,12.38
2023-08-07T05:00:06.806Z,14.07
2023-08-07T05:02:33.711Z,14.65
2023-08-07T05:05:00.624Z,13.77
2023-08-07T05:07:27.120Z,18.17
2023-08-07T05:09:54.605Z,21.33
2023-08-07T05:12:21.115Z,17.58
2023-08-07T05:14:47.595Z,15.32
2023-08-07T05:17:14.917Z,18.02
2023-08-07T05:19:41.408Z,17.95
2023-08-07T05:22:07.853Z,13.23
2023-08-07T05:24:40.241Z,13.35
2023-08-07T05:27:09.304Z,21.08
2023-08-07T05:29:44.373Z,14.25
2023-08-07T05:32:12.452Z,19.42
2023-08-07T05:34:39.396Z,15.43
2023-08-07T05:37:07.121Z,14.85
2023-08-07T05:39:34.015Z,15.13
2023-08-07T05:42:00.825Z,19.45
2023-08-07T05:44:27.435Z,13.32
2023-08-07T05:46:53.892Z,16.42
2023-08-07T05:49:23.956Z,14.43
2023-08-07T05:51:52.045Z,20.20
2023-08-07T05:54:18.539Z,22.75
2023-08-07T05:56:44.989Z,22.77
2023-08-07T05:59:11.635Z,15.95
2023-08-07T06:01:38.146Z,20.88
2023-08-07T06:04:05.009Z,16.80
2023-08-07T06:06:35.605Z,20.00
2023-08-07T06:09:03.658Z,19.30
2023-08-07T06:11:30.268Z,21.27
2023-08-07T06:13:57.122Z,12.50
2023-08-07T06:16:23.618Z,21.20
2023-08-07T06:18:50.124Z,27.05
2023-08-07T06:21:16.980Z,19.45
2023-08-07T06:23:43.433Z,21.58
2023-08-07T06:26:09.890Z,24.45
2023-08-07T06:28:37.692Z,25.33
2023-08-07T06:31:05.585Z,18.50
2023-08-07T06:33:32.363Z,23.92
2023-08-07T06:35:59.189Z,18.80
2023-08-07T06:38:25.991Z,25.92
2023-08-07T06:40:52.792Z,27.80
2023-08-07T06:43:19.571Z,22.65
2023-08-07T06:45:56.571Z,27.23
2023-08-07T06:48:23.571Z,27.30
2023-08-07T06:50:51.645Z,28.48
2023-08-07T06:53:18.663Z,23.38
2023-08-07T06:55:45.700Z,22.98
2023-08-07T06:58:12.259Z,25.33
2023-08-07T07:00:38.811Z,26.70
2023-08-07T07:03:06.022Z,27.95
2023-08-07T07:05:33.825Z,27.50
2023-08-07T07:08:00.654Z,28.08
2023-08-07T07:10:27.094Z,26.58
2023-08-07T07:12:53.582Z,18.67
2023-08-07T07:15:20.088Z,23.15
2023-08-07T07:17:46.841Z,24.30
2023-08-07T07:20:13.693Z,26.65
2023-08-07T07:22:40.164Z,21.17
2023-08-07T07:25:07.168Z,17.20
2023-08-07T07:27:33.649Z,36.80
2023-08-07T07:30:00.208Z,32.47
2023-08-07T07:32:27.372Z,42.03
2023-08-07T07:34:53.941Z,29.90
2023-08-07T07:37:20.451Z,35.58
2023-08-07T07:39:46.961Z,30.02
2023-08-07T07:42:13.490Z,32.88
2023-08-07T07:44:40.794Z,31.20
2023-08-07T07:47:09.636Z,27.67
2023-08-07T07:49:38.021Z,27.65
2023-08-07T07:52:04.985Z,26.77
2023-08-07T07:54:31.575Z,29.75
2023-08-07T07:56:58.462Z,31.65
2023-08-07T07:59:25.147Z,30.05
2023-08-07T08:01:52.458Z,26.08
2023-08-07T08:04:20.519Z,27.48
2023-08-07T08:06:49.405Z,25.20
2023-08-07T08:09:16.704Z,25.67
2023-08-07T08:11:43.387Z,24.98
2023-08-07T08:14:10.382Z,36.78
2023-08-07T08:16:36.897Z,35.67
2023-08-07T08:19:03.717Z,38.85
2023-08-07T08:21:31.938Z,35.13
2023-08-07T08:23:58.435Z,43.45
2023-08-07T08:26:24.967Z,35.80
2023-08-07T08:28:51.391Z,44.50
2023-08-07T08:31:17.896Z,38.70
2023-08-07T08:33:44.436Z,36.38
2023-08-07T08:36:10.940Z,32.47
2023-08-07T08:38:37.396Z,35.15
2023-08-07T08:41:04.895Z,32.95
2023-08-07T08:43:35.639Z,34.55
2023-08-07T08:46:02.298Z,50.55
2023-08-07T08:48:32.470Z,42.00
2023-08-07T08:53:26.527Z,27.63
2023-08-07T08:55:53.260Z,29.70
2023-08-07T08:58:22.238Z,28.85
2023-08-07T09:00:49.565Z,32.78
2023-08-07T09:03:16.308Z,25.42
2023-08-07T09:05:43.393Z,27.33
2023-08-07T09:08:11.080Z,30.77
2023-08-07T09:10:38.999Z,18.73
2023-08-07T09:13:12.018Z,25.40
2023-08-07T09:15:40.809Z,30.50
2023-08-07T09:18:08.891Z,20.45
2023-08-07T09:20:37.557Z,28.80
2023-08-07T09:23:04.055Z,27.20
2023-08-07T09:25:32.261Z,23.23
2023-08-07T09:27:58.882Z,25.27
2023-08-07T09:30:29.994Z,25.45
2023-08-07T09:33:03.496Z,20.67
2023-08-07T09:35:32.256Z,22.92
2023-08-07T09:37:59.519Z,20.80
2023-08-07T09:40:26.112Z,18.95
2023-08-07T09:42:54.453Z,23.33
2023-08-07T09:45:25.696Z,23.65
2023-08-07T09:48:03.069Z,22.08
2023-08-07T09:50:30.892Z,25.35
2023-08-07T09:52:59.147Z,20.55
2023-08-07T09:55:26.860Z,18.60
2023-08-07T09:57:54.050Z,24.88
2023-08-07T10:00:21.257Z,17.73
2023-08-07T10:02:51.771Z,22.77
2023-08-07T10:05:18.666Z,20.73
2023-08-07T10:07:45.259Z,16.77
2023-08-07T10:10:12.015Z,22.92
2023-08-07T10:12:42.254Z,18.42
2023-08-07T10:15:09.512Z,22.00
2023-08-07T10:17:36.122Z,21.65
2023-08-07T10:20:02.746Z,17.73
2023-08-07T10:22:31.908Z,26.60
2023-08-07T10:25:01.946Z,20.15
2023-08-07T10:27:32.295Z,15.45
2023-08-07T10:30:01.241Z,20.75
2023-08-07T10:32:28.910Z,25.30
2023-08-07T10:34:55.674Z,19.40
2023-08-07T10:37:44.742Z,28.92
2023-08-07T10:40:13.693Z,20.77
2023-08-07T10:43:14.134Z,26.00
2023-08-07T10:45:40.829Z,21.33
2023-08-07T10:48:09.528Z,21.02
2023-08-07T10:50:49.689Z,26.48
2023-08-07T10:53:31.129Z,20.63
2023-08-07T10:56:01.072Z,18.05
2023-08-07T10:58:35.460Z,21.67
2023-08-07T11:01:23.293Z,21.85
2023-08-07T11:04:14.284Z,24.40
2023-08-07T11:06:42.599Z,23.05
2023-08-07T11:09:10.780Z,22.25
2023-08-07T11:11:45.998Z,16.75
2023-08-07T11:14:17.282Z,20.88
2023-08-07T11:16:45.308Z,22.98
2023-08-07T11:19:14.133Z,20.85
2023-08-07T11:21:44.097Z,26.02
2023-08-07T11:24:14.472Z,21.33
2023-08-07T11:26:43.687Z,21.25
2023-08-07T11:29:10.491Z,17.90
2023-08-07T11:31:37.346Z,20.92
2023-08-07T11:34:04.056Z,23.70
2023-08-07T11:36:30.907Z,20.00
2023-08-07T11:38:57.676Z,17.85
2023-08-07T11:41:24.287Z,21.60
2023-08-07T11:43:50.774Z,21.50
2023-08-07T11:46:17.347Z,17.05
2023-08-07T11:48:48.460Z,18.85
2023-08-07T11:51:15.229Z,15.02
2023-08-07T11:53:43.033Z,17.80
2023-08-07T11:56:16.949Z,20.42
2023-08-07T11:58:48.642Z,20.35
2023-08-07T12:01:15.502Z,17.38
2023-08-07T12:04:09.522Z,19.55
2023-08-07T12:06:37.600Z,23.23
2023-08-07T12:09:04.506Z,18.27
2023-08-07T12:11:31.793Z,22.30
2023-08-07T12:14:01.701Z,20.30
2023-08-07T12:16:33.944Z,19.58
2023-08-07T12:19:00.379Z,27.45
2023-08-07T12:21:27.224Z,15.60
2023-08-07T12:23:56.828Z,18.20
2023-08-07T12:26:23.491Z,20.98
2023-08-07T12:28:50.826Z,21.30
2023-08-07T12:31:18.742Z,17.70
2023-08-07T12:33:45.445Z,19.38
2023-08-07T12:38:44.569Z,28.42
2023-08-07T12:41:44.834Z,22.42
2023-08-07T12:43:57.560Z,28.10
2023-08-07T12:48:53.442Z,18.52
2023-08-07T12:51:20.031Z,17.35
2023-08-07T12:53:46.636Z,27.20
2023-08-07T12:56:13.424Z,24.40
2023-08-07T12:58:42.331Z,25.33
2023-08-07T13:01:10.196Z,19.52
2023-08-07T13:03:36.665Z,18.02
2023-08-07T13:06:06.573Z,17.92
2023-08-07T13:08:34.612Z,17.17
2023-08-07T13:11:01.860Z,29.40
2023-08-07T13:13:31.930Z,23.58
2023-08-07T13:18:25.592Z,24.60
2023-08-07T13:20:51.984Z,24.13
2023-08-07T13:23:18.435Z,23.58
2023-08-07T13:25:44.869Z,24.63
2023-08-07T13:28:11.333Z,21.40
2023-08-07T13:30:38.228Z,22.23
2023-08-07T13:33:05.060Z,24.27
2023-08-07T13:35:33.979Z,20.58
2023-08-07T13:38:00.921Z,24.23
2023-08-07T13:40:27.494Z,22.83
2023-08-07T13:42:54.356Z,23.27
2023-08-07T13:45:21.198Z,23.73
2023-08-07T13:47:47.696Z,23.35
2023-08-07T13:50:14.296Z,23.88
2023-08-07T13:52:40.852Z,19.38
2023-08-07T13:55:09.964Z,16.95
2023-08-07T13:57:36.617Z,21.00
2023-08-07T14:00:03.979Z,24.77
2023-08-07T14:02:31.406Z,25.33
2023-08-07T14:04:58.496Z,17.38
2023-08-07T14:07:24.991Z,21.70
2023-08-07T14:09:51.438Z,20.95
2023-08-07T14:12:17.953Z,20.15
2023-08-07T14:14:44.505Z,19.08
2023-08-07T14:17:10.954Z,21.77
2023-08-07T14:19:37.448Z,19.10
2023-08-07T14:22:04.114Z,23.27
2023-08-07T14:24:30.813Z,21.83
2023-08-07T14:26:57.254Z,23.42
2023-08-07T14:29:23.758Z,17.88
2023-08-07T14:31:50.207Z,18.20
2023-08-07T14:34:16.914Z,24.73
2023-08-07T14:36:43.478Z,26.40
2023-08-07T14:39:10.006Z,26.35
2023-08-07T14:41:36.535Z,19.42
2023-08-07T14:44:03.071Z,23.70
2023-08-07T14:46:29.619Z,24.98
2023-08-07T14:48:56.777Z,22.58
2023-08-07T14:51:23.311Z,28.92
2023-08-07T14:53:50.161Z,25.00
2023-08-07T14:56:16.675Z,34.22
2023-08-07T14:58:43.123Z,39.80
2023-08-07T15:01:09.594Z,41.40
2023-08-07T15:03:36.092Z,44.00
2023-08-07T15:06:02.669Z,37.65
2023-08-07T15:08:29.139Z,44.70
2023-08-07T15:10:55.651Z,51.60
2023-08-07T15:13:22.169Z,47.33
2023-08-07T15:15:48.738Z,45.03
2023-08-07T15:18:15.374Z,45.28
2023-08-07T15:20:41.910Z,47.38
2023-08-07T15:23:08.577Z,44.70
2023-08-07T15:25:35.123Z,45.85
2023-08-07T15:28:02.468Z,42.10
2023-08-07T15:30:30.154Z,41.72
2023-08-07T15:32:57.393Z,39.42
2023-08-07T15:35:24.403Z,37.90
2023-08-07T15:37:50.960Z,46.65
2023-08-07T15:40:17.494Z,46.47
2023-08-07T15:42:46.557Z,44.88
2023-08-07T15:45:14.244Z,49.58
2023-08-07T15:47:40.991Z,44.70
2023-08-07T15:50:07.825Z,42.08
2023-08-07T15:52:34.359Z,46.63
2023-08-07T15:55:00.965Z,56.08
2023-08-07T15:57:27.414Z,49.55
2023-08-07T15:59:54.071Z,53.72
2023-08-07T16:02:20.638Z,50.65
2023-08-07T16:04:47.220Z,42.75
2023-08-07T16:07:13.811Z,41.20
2023-08-07T16:09:40.244Z,46.85
2023-08-07T16:12:07.233Z,46.50
2023-08-07T16:14:36.357Z,38.08
2023-08-07T16:17:05.752Z,39.50
2023-08-07T16:19:32.617Z,37.33
2023-08-07T16:21:59.063Z,35.22
2023-08-07T16:24:25.561Z,34.83
2023-08-07T16:26:52.028Z,27.05
2023-08-07T16:29:18.857Z,37.45
2023-08-07T16:31:45.416Z,32.55
2023-08-07T16:34:12.051Z,31.00
2023-08-07T16:36:38.949Z,31.60
2023-08-07T16:39:05.391Z,28.85
2023-08-07T16:41:31.999Z,26.05
2023-08-07T16:43:58.582Z,27.10
2023-08-07T16:46:25.076Z,30.65
2023-08-07T16:48:51.656Z,27.30
2023-08-07T16:51:19.878Z,32.55
2023-08-07T16:53:49.060Z,21.65
2023-08-07T16:56:16.004Z,29.85
2023-08-07T16:58:44.984Z,27.50
2023-08-07T17:01:11.514Z,22.60
2023-08-07T17:03:38.030Z,34.50
2023-08-07T17:06:04.654Z,28.52
2023-08-07T17:08:31.335Z,29.58
2023-08-07T17:10:57.760Z,26.88
2023-08-07T17:13:24.733Z,24.83
2023-08-07T17:15:51.398Z,20.73
2023-08-07T17:18:18.060Z,30.00
2023-08-07T17:20:44.754Z,27.00
2023-08-07T17:23:11.369Z,25.33
2023-08-07T17:25:37.814Z,25.02
2023-08-07T17:28:04.898Z,25.08
2023-08-07T17:30:31.448Z,24.45
2023-08-07T17:32:58.179Z,20.85
2023-08-07T17:35:25.290Z,27.80
2023-08-07T17:37:51.804Z,23.65
2023-08-07T17:40:18.344Z,19.40
2023-08-07T17:42:44.919Z,21.58
2023-08-07T17:45:13.368Z,20.65
2023-08-07T17:47:42.354Z,19.83
2023-08-07T17:50:10.410Z,25.48
2023-08-07T17:52:38.981Z,22.73
2023-08-07T17:55:06.405Z,36.58
2023-08-07T17:57:33.153Z,27.88
2023-08-07T17:59:59.700Z,35.72
2023-08-07T18:02:26.352Z,28.05
2023-08-07T18:04:52.968Z,26.33
2023-08-07T18:07:19.629Z,18.52
2023-08-07T18:09:46.160Z,20.77
2023-08-07T18:12:12.715Z,19.48
2023-08-07T18:14:39.595Z,23.10
2023-08-07T18:17:06.443Z,24.05
2023-08-07T18:19:33.058Z,23.60
2023-08-07T18:22:00.901Z,36.72
2023-08-07T18:24:27.975Z,44.45
2023-08-07T18:26:54.705Z,47.47
2023-08-07T18:29:21.285Z,42.95
2023-08-07T18:31:48.296Z,45.05
2023-08-07T18:34:14.778Z,50.13
2023-08-07T18:36:41.836Z,43.92
2023-08-07T18:39:08.441Z,49.00
2023-08-07T18:41:35.186Z,40.50
2023-08-07T18:44:03.102Z,48.92
2023-08-07T18:46:29.771Z,49.25
2023-08-07T18:48:56.339Z,54.10
2023-08-07T18:51:22.902Z,44.28
2023-08-07T18:53:49.399Z,52.97
2023-08-07T18:56:15.889Z,45.60
2023-08-07T18:58:42.434Z,50.90
2023-08-07T19:01:09.518Z,46.35
2023-08-07T19:03:36.238Z,55.15
2023-08-07T19:06:06.255Z,50.13
2023-08-07T19:08:36.016Z,45.60
2023-08-07T19:11:02.624Z,48.72
2023-08-07T19:13:29.178Z,47.08
2023-08-07T19:15:57.266Z,48.97
2023-08-07T19:18:24.670Z,44.67
2023-08-07T19:20:52.202Z,40.78
2023-08-07T19:23:19.072Z,38.92
2023-08-07T19:25:46.006Z,46.67
2023-08-07T19:28:13.834Z,40.78
2023-08-07T19:30:40.698Z,33.83
2023-08-07T19:33:10.770Z,39.17
2023-08-07T19:35:38.301Z,28.58
2023-08-07T19:38:05.001Z,35.30
2023-08-07T19:40:31.776Z,29.45
2023-08-07T19:42:58.366Z,37.10
2023-08-07T19:45:24.935Z,38.55
2023-08-07T19:47:51.490Z,35.53
2023-08-07T19:50:17.989Z,31.33
2023-08-07T19:52:44.440Z,28.85
2023-08-07T19:55:11.450Z,34.40
2023-08-07T19:57:38.858Z,32.38
2023-08-07T20:00:06.624Z,25.13
2023-08-07T20:02:34.225Z,29.80
2023-08-07T20:05:00.970Z,33.30
2023-08-07T20:07:27.694Z,32.25
2023-08-07T20:09:54.189Z,31.48
2023-08-07T20:12:21.850Z,27.52
2023-08-07T20:14:48.538Z,26.63
2023-08-07T20:17:15.098Z,28.45
2023-08-07T20:19:41.695Z,25.48
2023-08-07T20:22:08.450Z,26.55
2023-08-07T20:24:34.960Z,26.60
2023-08-07T20:27:01.489Z,29.40
2023-08-07T20:29:28.505Z,23.08
2023-08-07T20:31:55.009Z,30.60
2023-08-07T20:34:21.549Z,24.90
2023-08-07T20:36:48.051Z,21.20
2023-08-07T20:39:14.865Z,25.15
2023-08-07T20:41:41.378Z,28.60
2023-08-07T20:44:07.827Z,28.70
2023-08-07T20:46:34.307Z,20.40
2023-08-07T20:49:01.052Z,30.33
2023-08-07T20:51:27.572Z,28.08
2023-08-07T20:53:54.017Z,24.00
2023-08-07T20:56:20.579Z,21.77
2023-08-07T20:58:47.167Z,27.58
2023-08-07T21:01:13.779Z,19.55
2023-08-07T21:03:40.314Z,24.05
2023-08-07T21:06:06.776Z,17.55
2023-08-07T21:08:33.443Z,22.33
2023-08-07T21:11:00.065Z,23.20
2023-08-07T21:13:26.520Z,21.40
2023-08-07T21:15:53.036Z,22.38
2023-08-07T21:18:19.685Z,17.42
2023-08-07T21:20:46.374Z,17.15
2023-08-07T21:23:16.630Z,19.55
2023-08-07T21:25:43.335Z,22.33
2023-08-07T21:28:10.630Z,17.42
2023-08-07T21:30:37.716Z,16.50
2023-08-07T21:33:04.967Z,21.92
2023-08-07T21:35:31.650Z,24.20
2023-08-07T21:37:58.170Z,23.02
2023-08-07T21:40:24.868Z,18.67
2023-08-07T21:42:51.491Z,20.52
2023-08-07T21:45:18.051Z,19.77
2023-08-07T21:47:45.511Z,18.85
2023-08-07T21:50:12.423Z,20.58
2023-08-07T21:52:39.038Z,15.80
2023-08-07T21:55:06.070Z,15.07
2023-08-07T21:57:34.016Z,21.98
2023-08-07T22:00:00.731Z,21.02
2023-08-07T22:02:27.565Z,16.60
2023-08-07T22:04:54.265Z,25.95
2023-08-07T22:07:20.751Z,20.20
2023-08-07T22:09:47.385Z,18.70
2023-08-07T22:12:13.945Z,17.55
2023-08-07T22:14:40.458Z,20.15
2023-08-07T22:17:07.938Z,16.30
2023-08-07T22:19:34.955Z,16.17
2023-08-07T22:22:02.287Z,23.60
2023-08-07T22:24:28.900Z,20.33
2023-08-07T22:26:55.362Z,16.35
2023-08-07T22:29:21.836Z,18.80
2023-08-07T22:31:48.337Z,21.05
2023-08-07T22:34:15.039Z,15.70
2023-08-07T22:36:41.586Z,18.40
2023-08-07T22:39:08.109Z,15.07
2023-08-07T22:41:34.918Z,15.63
2023-08-07T22:44:02.103Z,17.85
2023-08-07T22:46:28.646Z,19.48
2023-08-07T22:48:55.275Z,20.63
2023-08-07T22:51:21.926Z,16.98
2023-08-07T22:53:48.481Z,18.55
2023-08-07T22:56:14.986Z,22.20
2023-08-07T22:58:41.615Z,18.20
2023-08-07T23:01:08.674Z,17.55
2023-08-07T23:03:35.180Z,17.88
2023-08-07T23:06:01.960Z,18.88
2023-08-07T23:08:28.449Z,23.35
2023-08-07T23:10:54.982Z,31.08
2023-08-07T23:13:21.556Z,34.28
2023-08-07T23:15:48.244Z,33.63
2023-08-07T23:18:15.067Z,40.40
2023-08-07T23:20:41.752Z,39.55
2023-08-07T23:23:08.325Z,38.08
2023-08-07T23:25:35.578Z,39.22
2023-08-07T23:28:02.628Z,38.85
2023-08-07T23:30:30.063Z,41.20
2023-08-07T23:32:56.718Z,38.38
2023-08-07T23:35:23.322Z,37.45
2023-08-07T23:37:49.830Z,39.03
2023-08-07T23:40:16.333Z,35.15
2023-08-07T23:42:42.921Z,41.83
2023-08-07T23:45:09.894Z,39.05
2023-08-07T23:47:36.758Z,44.15
2023-08-07T23:50:03.442Z,37.65
2023-08-07T23:52:30.248Z,43.10
2023-08-07T23:54:56.759Z,37.63
2023-08-07T23:57:23.323Z,35.28
2023-08-07T23:59:53.551Z,40.65
